• Join FlightAware (Why Join?)
  • Login
  • US Flag 
09:48PM EDT


 

Airport Tracker/Info


-or-


 

Live Flight TrackerFlight Track Log ✈ CSN6511 ✈ 01-Nov-2013 ✈ ZHLY / LYA - ZBHH / HET

Flight Track Log - Related Links

Times and Time Zones

All times are in EDT time to prevent confusion due to time zone crossing. See the CSN6511 flight status page for this flight to view local times or setup timezone preferences in your user account.

Time Position Orientation Groundspeed Altitude Reporting Facility
EDT Latitude Longitude Course Direction KTS MPH feet Rate Location/Type
06:02AM 34.8867 112.3759 356° North  Level Estimated
06:03AM 35.0323 112.3634 356° North  Level Estimated
06:04AM 35.1779 112.3509 356° North  Level Estimated
06:05AM 35.3235 112.3384 356° North  Level Estimated
06:06AM 35.4691 112.3258 356° North  Level Estimated
06:07AM 35.6147 112.3131 356° North  Level Estimated
06:08AM 35.7603 112.3005 356° North  Level Estimated
06:09AM 35.9058 112.2877 356° North  Level Estimated
06:10AM 36.0514 112.2749 356° North  Level Estimated
06:11AM 36.1970 112.2621 356° North  Level Estimated
06:12AM 36.3426 112.2492 356° North  Level Estimated
06:13AM 36.4882 112.2363 356° North  Level Estimated
06:14AM 36.6338 112.2233 356° North  Level Estimated
06:15AM 36.7794 112.2103 356° North  Level Estimated
06:16AM 36.9249 112.1972 356° North  Level Estimated
06:17AM 37.0705 112.1841 356° North  Level Estimated
06:18AM 37.2161 112.1710 356° North  Level Estimated
06:19AM 37.3617 112.1577 356° North  Level Estimated
06:20AM 37.5072 112.1444 356° North  Level Estimated
06:21AM 37.6528 112.1311 356° North  Level Estimated
06:22AM 37.7984 112.1177 356° North  Level Estimated
06:23AM 37.9439 112.1043 356° North  Level Estimated
06:24AM 38.0895 112.0908 356° North  Level Estimated
06:25AM 38.2351 112.0773 356° North  Level Estimated
06:26AM 38.3806 112.0637 356° North  Level Estimated
06:27AM 38.5262 112.0500 356° North  Level Estimated
06:28AM 38.6717 112.0363 356° North  Level Estimated
06:29AM 38.8173 112.0226 356° North  Level Estimated
06:30AM 38.9629 112.0088 356° North  Level Estimated
06:31AM 39.1084 111.9949 356° North  Level Estimated
06:32AM 39.2540 111.9809 356° North  Level Estimated
06:33AM 39.3995 111.9670 356° North  Level Estimated
06:34AM 39.5451 111.9529 356° North  Level Estimated
06:35AM 39.6906 111.9388 356° North  Level Estimated
06:36AM 39.8362 111.9246 356° North  Level Estimated
06:37AM 39.9817 111.9104 356° North  Level Estimated
06:38AM 40.1273 111.8961 356° North  Level Estimated
06:39AM 40.2728 111.8818 356° North  Level Estimated
06:40AM 40.4184 111.8673 356° North  Level Estimated
06:41AM 40.5639 111.8529 356° North  Level Estimated
06:42AM 40.7094 111.8383 356° North  Level Estimated
06:43AM 40.8514 111.8241 356° North  Level Estimated
06:44AM 40.8514 111.8241 49° Northeast  Level Estimated
06:45AM 40.8514 111.8241 49° Northeast  Level Estimated
06:46AM 40.8514 111.8241 49° Northeast  Level Estimated
06:47AM 40.8514 111.8241 49° Northeast  Level Estimated
06:48AM 40.8514 111.8241 49° Northeast  Level Estimated
06:49AM 40.8514 111.8241 49° Northeast  Level Estimated
06:50AM 40.8514 111.8241 49° Northeast  Level Estimated
06:51AM 40.8514 111.8241 49° Northeast  Level Estimated